Colorado Springs, CO (80942)

6:22 AM MDT on August 21, 2014 (GMT -0600)
Old North End | Change Station
CLOSE
Current Station
Personal Weather Station
Location: Colorado Springs, CO
Elevation: 6086 ft
Nearby Weather Stations

Elev 6086 ft 38.85 °N, 104.82 °W | Updated 8 seconds ago

Scattered Clouds
Scattered Clouds
59.2 °F
Feels Like 59.2 °F
N
0.0
Wind Variable Wind from South
Gusts 0.0 mph

Today
High -- | Low -- °F
--% Chance of Precip.
Yesterday
High -- | Low -- °F
Precip. -- in
6:18 AM 7:45 PM
Waning Crescent, 14% visible
Pressure 29.90 in
Visibility 10.0 miles
Clouds Scattered Clouds 9500 ft
Dew Point 50 °F
Humidity 73%
Rainfall 0.00 in
Snow Depth 0 in
UV 0 out of 12
Pollen 9.30 out of 12
Ozone Good
PM2.5 Good
Flu Activity Not available.
METAR KCOS 211154Z 28005KT 10SM SCT095 15/09 A3014 RMK AO2 SLP123 T01500089 10200 20150 53012

More Conditions Fewer Conditions

Pressure 29.90 in
Visibility 10.0 miles
Clouds Scattered Clouds 9500 ft
Dew Point 50 °F
Humidity 73%
Rainfall 0.00 in
Snow Depth 0 in
UV 0 out of 12
Pollen 9.30 out of 12
Ozone Good
PM2.5 Good
Flu Activity Not available.
METAR KCOS 211154Z 28005KT 10SM SCT095 15/09 A3014 RMK AO2 SLP123 T01500089 10200 20150 53012

More Conditions Fewer Conditions

10-Day Weather Forecast

Almanac

Astronomy

Aug. 21, 2014 Rise Set
Actual Time 6:18 AM MDT 7:45 PM MDT
Civil Twilight 5:50 AM MDT 8:13 PM MDT
Nautical Twilight 5:16 AM MDT 8:47 PM MDT
Astronomical Twilight 4:41 AM MDT 9:22 PM MDT
Moon 2:51 AM MDT 5:15 PM MDT
Length of Visible Light 14h 23m
Length of Day
13h 27m
Tomorrow will be 2m 18s shorter.
Waning Crescent, 14% of the Moon is Illuminated
Today
Waning Crescent
Aug 25
New
Sep 2
First Quarter
Sep 8
Full
Sep 15
Last Quarter

Today's Extremes

State Highs State Lows

Community

WunderPhotos

Upload Photos

1,745,890 photos uploaded!

WunderBlogs® & News

Nearby

Air Quality

  Air Quality AQ Index Pollutant
Yesterday Good
OZONE
Yesterday Good
PM2.5
Current Good
OZONE
Current Good
PM2.5
Thursday Good
PM2.5
Thursday Good
OZONE

Snow Depth

Station Depth Elevation
Glen Cove 0 in 11460 ft
Rough And Tumble 1 in 10360 ft
Echo Lake 0 in 10600 ft
Michigan Creek 0 in 10600 ft
Jackwhacker Gulch 0 in 10960 ft

Earthquake Activity

City Distance Mag. Time & Date
No recent earthquake activity has been reported nearby.
Minimum magnitude displayed is 2.5.

Coastal Water Temperatures

Place Temperature
No Stations Reporting

Nearby Weather Stations